sensor_id;sensor_type;location;lat;lon;timestamp;temperature;humidity
3752;DHT22;50827;47.014;7.652;2023-07-22T00:02:26;19.50;99.90
3752;DHT22;50827;47.014;7.652;2023-07-22T00:04:52;19.50;99.90
3752;DHT22;50827;47.014;7.652;2023-07-22T00:07:19;19.50;99.90
3752;DHT22;50827;47.014;7.652;2023-07-22T00:09:46;19.40;99.90
3752;DHT22;50827;47.014;7.652;2023-07-22T00:12:12;19.40;99.90
3752;DHT22;50827;47.014;7.652;2023-07-22T00:14:40;19.40;99.90
3752;DHT22;50827;47.014;7.652;2023-07-22T00:17:07;19.40;99.90
3752;DHT22;50827;47.014;7.652;2023-07-22T00:19:34;19.40;99.90
3752;DHT22;50827;47.014;7.652;2023-07-22T00:22:01;19.40;99.90
3752;DHT22;50827;47.014;7.652;2023-07-22T00:24:28;19.40;99.90
3752;DHT22;50827;47.014;7.652;2023-07-22T00:26:55;19.40;99.90
3752;DHT22;50827;47.014;7.652;2023-07-22T00:29:22;19.40;99.90
3752;DHT22;50827;47.014;7.652;2023-07-22T00:31:49;19.40;99.90
3752;DHT22;50827;47.014;7.652;2023-07-22T00:34:16;19.40;99.90
3752;DHT22;50827;47.014;7.652;2023-07-22T00:36:43;19.40;99.90
3752;DHT22;50827;47.014;7.652;2023-07-22T00:39:10;19.40;99.90
3752;DHT22;50827;47.014;7.652;2023-07-22T00:41:40;19.30;99.90
3752;DHT22;50827;47.014;7.652;2023-07-22T00:44:09;19.30;99.90
3752;DHT22;50827;47.014;7.652;2023-07-22T00:46:36;19.30;99.90
3752;DHT22;50827;47.014;7.652;2023-07-22T00:49:04;19.30;99.90
3752;DHT22;50827;47.014;7.652;2023-07-22T00:51:32;19.30;99.90
3752;DHT22;50827;47.014;7.652;2023-07-22T00:53:59;19.30;99.90
3752;DHT22;50827;47.014;7.652;2023-07-22T00:56:26;19.30;99.90
3752;DHT22;50827;47.014;7.652;2023-07-22T00:58:53;19.20;99.90
3752;DHT22;50827;47.014;7.652;2023-07-22T01:01:21;19.20;99.90
3752;DHT22;50827;47.014;7.652;2023-07-22T01:03:48;19.20;99.90
3752;DHT22;50827;47.014;7.652;2023-07-22T01:06:15;19.20;99.90
3752;DHT22;50827;47.014;7.652;2023-07-22T01:08:44;19.20;99.90
3752;DHT22;50827;47.014;7.652;2023-07-22T01:11:11;19.20;99.90
3752;DHT22;50827;47.014;7.652;2023-07-22T01:13:39;19.20;99.90
3752;DHT22;50827;47.014;7.652;2023-07-22T01:16:06;19.10;99.90
3752;DHT22;50827;47.014;7.652;2023-07-22T01:18:33;19.10;99.90
3752;DHT22;50827;47.014;7.652;2023-07-22T01:21:00;19.10;99.90
3752;DHT22;50827;47.014;7.652;2023-07-22T01:23:27;19.10;99.90
3752;DHT22;50827;47.014;7.652;2023-07-22T01:25:55;19.10;99.90
3752;DHT22;50827;47.014;7.652;2023-07-22T01:28:22;19.10;99.90
3752;DHT22;50827;47.014;7.652;2023-07-22T01:30:49;19.10;99.90
3752;DHT22;50827;47.014;7.652;2023-07-22T01:33:15;19.10;99.90
3752;DHT22;50827;47.014;7.652;2023-07-22T01:35:42;19.10;99.90
3752;DHT22;50827;47.014;7.652;2023-07-22T01:38:09;19.20;99.90
3752;DHT22;50827;47.014;7.652;2023-07-22T01:40:35;19.10;99.90
3752;DHT22;50827;47.014;7.652;2023-07-22T01:43:02;19.10;99.90
3752;DHT22;50827;47.014;7.652;2023-07-22T01:45:29;19.10;99.90
3752;DHT22;50827;47.014;7.652;2023-07-22T01:47:55;19.10;99.90
3752;DHT22;50827;47.014;7.652;2023-07-22T01:50:22;19.10;99.90
3752;DHT22;50827;47.014;7.652;2023-07-22T01:52:49;19.10;99.90
3752;DHT22;50827;47.014;7.652;2023-07-22T01:55:15;19.10;99.90
3752;DHT22;50827;47.014;7.652;2023-07-22T01:57:42;19.00;99.90
3752;DHT22;50827;47.014;7.652;2023-07-22T02:00:09;19.00;99.90
3752;DHT22;50827;47.014;7.652;2023-07-22T02:02:37;19.00;99.90
3752;DHT22;50827;47.014;7.652;2023-07-22T02:05:04;18.90;99.90
3752;DHT22;50827;47.014;7.652;2023-07-22T02:07:31;18.90;99.90
3752;DHT22;50827;47.014;7.652;2023-07-22T02:09:58;18.90;99.90
3752;DHT22;50827;47.014;7.652;2023-07-22T02:12:25;19.00;99.90
3752;DHT22;50827;47.014;7.652;2023-07-22T02:14:51;19.00;99.90
3752;DHT22;50827;47.014;7.652;2023-07-22T02:17:18;19.00;99.90
3752;DHT22;50827;47.014;7.652;2023-07-22T02:19:45;18.90;99.90
3752;DHT22;50827;47.014;7.652;2023-07-22T02:22:11;18.90;99.90
3752;DHT22;50827;47.014;7.652;2023-07-22T02:24:38;18.80;99.90
3752;DHT22;50827;47.014;7.652;2023-07-22T02:27:05;18.80;99.90
3752;DHT22;50827;47.014;7.652;2023-07-22T02:29:33;18.80;99.90
3752;DHT22;50827;47.014;7.652;2023-07-22T02:32:00;18.80;99.90
3752;DHT22;50827;47.014;7.652;2023-07-22T02:34:27;18.60;99.90
3752;DHT22;50827;47.014;7.652;2023-07-22T02:36:55;18.60;99.90
3752;DHT22;50827;47.014;7.652;2023-07-22T02:39:23;18.50;99.90
3752;DHT22;50827;47.014;7.652;2023-07-22T02:41:49;18.50;99.90
3752;DHT22;50827;47.014;7.652;2023-07-22T02:44:16;18.50;99.90
3752;DHT22;50827;47.014;7.652;2023-07-22T02:46:43;18.50;99.90
3752;DHT22;50827;47.014;7.652;2023-07-22T02:49:09;18.60;99.90
3752;DHT22;50827;47.014;7.652;2023-07-22T02:51:36;18.60;99.90
3752;DHT22;50827;47.014;7.652;2023-07-22T02:54:03;18.60;99.90
3752;DHT22;50827;47.014;7.652;2023-07-22T02:56:30;18.60;99.90
3752;DHT22;50827;47.014;7.652;2023-07-22T02:58:56;18.50;99.90
3752;DHT22;50827;47.014;7.652;2023-07-22T03:01:24;18.40;99.90
3752;DHT22;50827;47.014;7.652;2023-07-22T03:03:51;18.40;99.90
3752;DHT22;50827;47.014;7.652;2023-07-22T03:06:18;18.30;99.90
3752;DHT22;50827;47.014;7.652;2023-07-22T03:08:45;18.30;99.90
3752;DHT22;50827;47.014;7.652;2023-07-22T03:11:11;18.40;99.90
3752;DHT22;50827;47.014;7.652;2023-07-22T03:13:38;18.40;99.90
3752;DHT22;50827;47.014;7.652;2023-07-22T03:16:05;18.40;99.90
3752;DHT22;50827;47.014;7.652;2023-07-22T03:18:32;18.40;99.90
3752;DHT22;50827;47.014;7.652;2023-07-22T03:20:58;18.40;99.90
3752;DHT22;50827;47.014;7.652;2023-07-22T03:23:25;18.40;99.90
3752;DHT22;50827;47.014;7.652;2023-07-22T03:25:53;18.30;99.90
3752;DHT22;50827;47.014;7.652;2023-07-22T03:28:19;18.30;99.90
3752;DHT22;50827;47.014;7.652;2023-07-22T03:30:46;18.30;99.90
3752;DHT22;50827;47.014;7.652;2023-07-22T03:33:13;18.30;99.90
3752;DHT22;50827;47.014;7.652;2023-07-22T03:35:41;18.30;99.90
3752;DHT22;50827;47.014;7.652;2023-07-22T03:38:07;18.20;99.90
3752;DHT22;50827;47.014;7.652;2023-07-22T03:40:34;18.20;99.90
3752;DHT22;50827;47.014;7.652;2023-07-22T03:43:01;18.10;99.90
3752;DHT22;50827;47.014;7.652;2023-07-22T03:45:28;18.00;99.90
3752;DHT22;50827;47.014;7.652;2023-07-22T03:47:57;18.00;99.90
3752;DHT22;50827;47.014;7.652;2023-07-22T03:50:25;17.90;99.90
3752;DHT22;50827;47.014;7.652;2023-07-22T03:52:52;17.90;99.90
3752;DHT22;50827;47.014;7.652;2023-07-22T03:55:19;17.80;99.90
3752;DHT22;50827;47.014;7.652;2023-07-22T03:57:46;17.70;99.90
3752;DHT22;50827;47.014;7.652;2023-07-22T04:00:13;17.70;99.90
3752;DHT22;50827;47.014;7.652;2023-07-22T04:02:39;17.70;99.90
3752;DHT22;50827;47.014;7.652;2023-07-22T04:05:07;17.70;99.90
3752;DHT22;50827;47.014;7.652;2023-07-22T04:07:34;17.80;99.90
3752;DHT22;50827;47.014;7.652;2023-07-22T04:10:01;17.80;99.90
3752;DHT22;50827;47.014;7.652;2023-07-22T04:12:29;17.70;99.90
3752;DHT22;50827;47.014;7.652;2023-07-22T04:14:55;17.70;99.90
3752;DHT22;50827;47.014;7.652;2023-07-22T04:17:22;17.70;99.90
3752;DHT22;50827;47.014;7.652;2023-07-22T04:19:51;17.70;99.90
3752;DHT22;50827;47.014;7.652;2023-07-22T04:22:19;17.70;99.90
3752;DHT22;50827;47.014;7.652;2023-07-22T04:24:46;17.60;99.90
3752;DHT22;50827;47.014;7.652;2023-07-22T04:27:16;17.70;99.90
3752;DHT22;50827;47.014;7.652;2023-07-22T04:29:43;17.70;99.90
3752;DHT22;50827;47.014;7.652;2023-07-22T04:32:10;17.70;99.90
3752;DHT22;50827;47.014;7.652;2023-07-22T04:34:37;17.70;99.90
3752;DHT22;50827;47.014;7.652;2023-07-22T04:37:04;17.70;99.90
3752;DHT22;50827;47.014;7.652;2023-07-22T04:39:30;17.70;99.90
3752;DHT22;50827;47.014;7.652;2023-07-22T04:41:57;17.70;99.90
3752;DHT22;50827;47.014;7.652;2023-07-22T04:44:24;17.70;99.90
3752;DHT22;50827;47.014;7.652;2023-07-22T04:46:51;17.70;99.90
3752;DHT22;50827;47.014;7.652;2023-07-22T04:49:18;17.80;99.90
3752;DHT22;50827;47.014;7.652;2023-07-22T04:51:48;17.80;99.90
3752;DHT22;50827;47.014;7.652;2023-07-22T04:54:15;17.80;99.90
3752;DHT22;50827;47.014;7.652;2023-07-22T04:56:42;17.90;99.90
3752;DHT22;50827;47.014;7.652;2023-07-22T04:59:09;17.90;99.90
3752;DHT22;50827;47.014;7.652;2023-07-22T05:01:36;18.00;99.90
3752;DHT22;50827;47.014;7.652;2023-07-22T05:04:03;18.00;99.90
3752;DHT22;50827;47.014;7.652;2023-07-22T05:06:31;17.90;99.90
3752;DHT22;50827;47.014;7.652;2023-07-22T05:08:58;18.00;99.90
3752;DHT22;50827;47.014;7.652;2023-07-22T05:11:25;18.00;99.90
3752;DHT22;50827;47.014;7.652;2023-07-22T05:13:52;18.00;99.90
3752;DHT22;50827;47.014;7.652;2023-07-22T05:16:18;18.00;99.90
3752;DHT22;50827;47.014;7.652;2023-07-22T05:18:45;17.90;99.90
3752;DHT22;50827;47.014;7.652;2023-07-22T05:21:12;17.90;99.90
3752;DHT22;50827;47.014;7.652;2023-07-22T05:23:39;17.80;99.90
3752;DHT22;50827;47.014;7.652;2023-07-22T05:26:05;17.80;99.90
3752;DHT22;50827;47.014;7.652;2023-07-22T05:28:32;17.90;99.90
3752;DHT22;50827;47.014;7.652;2023-07-22T05:30:58;17.90;99.90
3752;DHT22;50827;47.014;7.652;2023-07-22T05:33:25;18.00;99.90
3752;DHT22;50827;47.014;7.652;2023-07-22T05:35:52;18.20;99.90
3752;DHT22;50827;47.014;7.652;2023-07-22T05:38:18;18.30;99.90
3752;DHT22;50827;47.014;7.652;2023-07-22T05:40:45;18.30;99.90
3752;DHT22;50827;47.014;7.652;2023-07-22T05:43:12;18.20;99.90
3752;DHT22;50827;47.014;7.652;2023-07-22T05:45:38;18.20;99.90
3752;DHT22;50827;47.014;7.652;2023-07-22T05:48:05;18.40;99.90
3752;DHT22;50827;47.014;7.652;2023-07-22T05:50:32;18.40;99.90
3752;DHT22;50827;47.014;7.652;2023-07-22T05:52:59;18.40;99.90
3752;DHT22;50827;47.014;7.652;2023-07-22T05:55:26;18.50;99.90
3752;DHT22;50827;47.014;7.652;2023-07-22T05:57:53;18.60;99.90
3752;DHT22;50827;47.014;7.652;2023-07-22T06:00:20;18.50;99.90
3752;DHT22;50827;47.014;7.652;2023-07-22T06:02:47;18.50;99.90
3752;DHT22;50827;47.014;7.652;2023-07-22T06:05:15;18.60;99.90
3752;DHT22;50827;47.014;7.652;2023-07-22T06:07:42;18.60;99.90
3752;DHT22;50827;47.014;7.652;2023-07-22T06:10:09;18.50;99.90
3752;DHT22;50827;47.014;7.652;2023-07-22T06:12:35;18.50;99.90
3752;DHT22;50827;47.014;7.652;2023-07-22T06:15:02;18.40;99.90
3752;DHT22;50827;47.014;7.652;2023-07-22T06:17:29;18.40;99.90
3752;DHT22;50827;47.014;7.652;2023-07-22T06:19:56;18.40;99.90
3752;DHT22;50827;47.014;7.652;2023-07-22T06:22:23;18.40;99.90
3752;DHT22;50827;47.014;7.652;2023-07-22T06:24:49;18.50;99.90
3752;DHT22;50827;47.014;7.652;2023-07-22T06:27:16;18.60;99.90
3752;DHT22;50827;47.014;7.652;2023-07-22T06:29:43;18.70;99.90
3752;DHT22;50827;47.014;7.652;2023-07-22T06:32:09;18.80;99.90
3752;DHT22;50827;47.014;7.652;2023-07-22T06:34:36;18.90;99.90
3752;DHT22;50827;47.014;7.652;2023-07-22T06:37:03;19.00;99.90
3752;DHT22;50827;47.014;7.652;2023-07-22T06:39:29;19.00;99.90
3752;DHT22;50827;47.014;7.652;2023-07-22T06:41:56;19.10;99.90
3752;DHT22;50827;47.014;7.652;2023-07-22T06:44:23;19.10;99.90
3752;DHT22;50827;47.014;7.652;2023-07-22T06:46:49;19.10;99.90
3752;DHT22;50827;47.014;7.652;2023-07-22T06:49:16;19.10;99.90
3752;DHT22;50827;47.014;7.652;2023-07-22T06:51:43;19.10;99.90
3752;DHT22;50827;47.014;7.652;2023-07-22T06:54:09;19.00;99.90
3752;DHT22;50827;47.014;7.652;2023-07-22T06:56:36;19.10;99.90
3752;DHT22;50827;47.014;7.652;2023-07-22T06:59:03;19.20;99.90
3752;DHT22;50827;47.014;7.652;2023-07-22T07:01:29;19.30;99.90
3752;DHT22;50827;47.014;7.652;2023-07-22T07:03:56;19.40;99.90
3752;DHT22;50827;47.014;7.652;2023-07-22T07:06:23;19.40;99.90
3752;DHT22;50827;47.014;7.652;2023-07-22T07:08:49;19.40;99.90
3752;DHT22;50827;47.014;7.652;2023-07-22T07:11:16;19.40;99.90
3752;DHT22;50827;47.014;7.652;2023-07-22T07:13:43;19.50;99.90
3752;DHT22;50827;47.014;7.652;2023-07-22T07:16:27;19.60;99.90
3752;DHT22;50827;47.014;7.652;2023-07-22T07:18:55;19.60;99.90
3752;DHT22;50827;47.014;7.652;2023-07-22T07:21:22;19.70;99.90
3752;DHT22;50827;47.014;7.652;2023-07-22T07:23:50;19.80;99.90
3752;DHT22;50827;47.014;7.652;2023-07-22T07:26:19;19.80;99.90
3752;DHT22;50827;47.014;7.652;2023-07-22T07:28:46;19.90;99.90
3752;DHT22;50827;47.014;7.652;2023-07-22T07:31:13;20.00;99.90
3752;DHT22;50827;47.014;7.652;2023-07-22T07:33:40;20.00;99.90
3752;DHT22;50827;47.014;7.652;2023-07-22T07:36:07;20.10;99.90
3752;DHT22;50827;47.014;7.652;2023-07-22T07:38:33;20.10;99.90
3752;DHT22;50827;47.014;7.652;2023-07-22T07:41:03;20.20;99.90
3752;DHT22;50827;47.014;7.652;2023-07-22T07:43:30;20.30;99.90
3752;DHT22;50827;47.014;7.652;2023-07-22T07:46:13;20.30;99.90
3752;DHT22;50827;47.014;7.652;2023-07-22T07:48:40;20.30;99.90
3752;DHT22;50827;47.014;7.652;2023-07-22T07:51:07;20.30;99.90
3752;DHT22;50827;47.014;7.652;2023-07-22T07:53:33;20.30;99.90
3752;DHT22;50827;47.014;7.652;2023-07-22T07:56:00;20.40;99.90
3752;DHT22;50827;47.014;7.652;2023-07-22T07:58:27;20.30;99.90
3752;DHT22;50827;47.014;7.652;2023-07-22T08:00:54;20.30;99.90
3752;DHT22;50827;47.014;7.652;2023-07-22T08:03:20;20.30;99.90
3752;DHT22;50827;47.014;7.652;2023-07-22T08:05:47;20.40;99.90
3752;DHT22;50827;47.014;7.652;2023-07-22T08:08:14;20.50;99.90
3752;DHT22;50827;47.014;7.652;2023-07-22T08:10:40;20.60;99.90
3752;DHT22;50827;47.014;7.652;2023-07-22T08:13:08;20.60;99.90
3752;DHT22;50827;47.014;7.652;2023-07-22T08:15:36;20.60;99.90
3752;DHT22;50827;47.014;7.652;2023-07-22T08:18:03;20.60;99.90
3752;DHT22;50827;47.014;7.652;2023-07-22T08:20:30;20.70;99.90
3752;DHT22;50827;47.014;7.652;2023-07-22T08:22:57;20.70;99.90
3752;DHT22;50827;47.014;7.652;2023-07-22T08:25:24;20.70;99.90
3752;DHT22;50827;47.014;7.652;2023-07-22T08:27:50;20.70;99.90
3752;DHT22;50827;47.014;7.652;2023-07-22T08:30:17;20.70;99.90
3752;DHT22;50827;47.014;7.652;2023-07-22T08:32:44;20.80;99.90
3752;DHT22;50827;47.014;7.652;2023-07-22T08:35:10;20.90;99.90
3752;DHT22;50827;47.014;7.652;2023-07-22T08:37:37;20.80;99.90
3752;DHT22;50827;47.014;7.652;2023-07-22T08:40:04;20.90;99.90
3752;DHT22;50827;47.014;7.652;2023-07-22T08:42:32;20.90;99.90
3752;DHT22;50827;47.014;7.652;2023-07-22T08:45:01;21.00;99.90
3752;DHT22;50827;47.014;7.652;2023-07-22T08:47:29;21.10;99.90
3752;DHT22;50827;47.014;7.652;2023-07-22T08:50:01;21.10;99.90
3752;DHT22;50827;47.014;7.652;2023-07-22T08:52:28;21.10;99.90
3752;DHT22;50827;47.014;7.652;2023-07-22T08:54:56;21.20;99.90
3752;DHT22;50827;47.014;7.652;2023-07-22T08:57:23;21.20;99.90
3752;DHT22;50827;47.014;7.652;2023-07-22T08:59:51;21.10;99.90
3752;DHT22;50827;47.014;7.652;2023-07-22T09:02:19;21.20;99.90
3752;DHT22;50827;47.014;7.652;2023-07-22T09:04:46;21.20;99.90
3752;DHT22;50827;47.014;7.652;2023-07-22T09:07:14;21.20;99.90
3752;DHT22;50827;47.014;7.652;2023-07-22T09:09:41;21.30;99.90
3752;DHT22;50827;47.014;7.652;2023-07-22T09:12:08;21.30;99.90
3752;DHT22;50827;47.014;7.652;2023-07-22T09:14:35;21.30;99.90
3752;DHT22;50827;47.014;7.652;2023-07-22T09:17:04;21.40;99.90
3752;DHT22;50827;47.014;7.652;2023-07-22T09:19:31;21.50;99.90
3752;DHT22;50827;47.014;7.652;2023-07-22T09:21:58;21.50;99.90
3752;DHT22;50827;47.014;7.652;2023-07-22T09:24:26;21.60;99.90
3752;DHT22;50827;47.014;7.652;2023-07-22T09:26:54;21.70;99.90
3752;DHT22;50827;47.014;7.652;2023-07-22T09:29:38;21.80;99.90
3752;DHT22;50827;47.014;7.652;2023-07-22T09:32:06;21.90;99.90
3752;DHT22;50827;47.014;7.652;2023-07-22T09:34:34;21.90;99.90
3752;DHT22;50827;47.014;7.652;2023-07-22T09:37:00;22.00;99.90
3752;DHT22;50827;47.014;7.652;2023-07-22T09:39:27;22.00;99.90
3752;DHT22;50827;47.014;7.652;2023-07-22T09:41:54;22.10;99.90
3752;DHT22;50827;47.014;7.652;2023-07-22T09:44:30;22.00;99.90
3752;DHT22;50827;47.014;7.652;2023-07-22T09:46:58;22.10;99.90
3752;DHT22;50827;47.014;7.652;2023-07-22T09:49:26;22.10;99.90
3752;DHT22;50827;47.014;7.652;2023-07-22T09:51:53;22.30;99.90
3752;DHT22;50827;47.014;7.652;2023-07-22T09:54:28;22.40;99.90
3752;DHT22;50827;47.014;7.652;2023-07-22T09:56:57;22.40;99.90
3752;DHT22;50827;47.014;7.652;2023-07-22T09:59:24;22.50;99.90
3752;DHT22;50827;47.014;7.652;2023-07-22T10:01:55;22.50;99.90
3752;DHT22;50827;47.014;7.652;2023-07-22T10:04:25;22.50;99.90
3752;DHT22;50827;47.014;7.652;2023-07-22T10:06:54;22.50;99.90
3752;DHT22;50827;47.014;7.652;2023-07-22T10:09:24;22.60;99.90
3752;DHT22;50827;47.014;7.652;2023-07-22T10:11:51;22.70;99.90
3752;DHT22;50827;47.014;7.652;2023-07-22T10:14:18;22.70;99.90
3752;DHT22;50827;47.014;7.652;2023-07-22T10:16:45;22.60;99.90
3752;DHT22;50827;47.014;7.652;2023-07-22T10:19:12;22.60;99.90
3752;DHT22;50827;47.014;7.652;2023-07-22T10:21:39;22.70;99.90
3752;DHT22;50827;47.014;7.652;2023-07-22T10:24:07;22.70;99.90
3752;DHT22;50827;47.014;7.652;2023-07-22T10:26:36;22.70;99.90
3752;DHT22;50827;47.014;7.652;2023-07-22T10:29:06;22.60;99.90
3752;DHT22;50827;47.014;7.652;2023-07-22T10:31:34;22.60;99.90
3752;DHT22;50827;47.014;7.652;2023-07-22T10:34:01;22.70;99.90
3752;DHT22;50827;47.014;7.652;2023-07-22T10:36:29;22.70;99.90
3752;DHT22;50827;47.014;7.652;2023-07-22T10:38:58;22.80;99.90
3752;DHT22;50827;47.014;7.652;2023-07-22T10:41:30;22.80;99.90
3752;DHT22;50827;47.014;7.652;2023-07-22T10:43:58;22.90;99.90
3752;DHT22;50827;47.014;7.652;2023-07-22T10:46:35;23.00;99.90
3752;DHT22;50827;47.014;7.652;2023-07-22T10:49:13;23.00;99.90
3752;DHT22;50827;47.014;7.652;2023-07-22T10:51:40;23.00;99.90
3752;DHT22;50827;47.014;7.652;2023-07-22T10:54:12;23.00;99.90
3752;DHT22;50827;47.014;7.652;2023-07-22T10:56:42;23.00;99.90
3752;DHT22;50827;47.014;7.652;2023-07-22T10:59:12;23.00;99.90
3752;DHT22;50827;47.014;7.652;2023-07-22T11:01:39;23.00;99.90
3752;DHT22;50827;47.014;7.652;2023-07-22T11:04:25;23.00;99.90
3752;DHT22;50827;47.014;7.652;2023-07-22T11:07:12;23.10;99.90
3752;DHT22;50827;47.014;7.652;2023-07-22T11:09:39;23.10;99.90
3752;DHT22;50827;47.014;7.652;2023-07-22T11:12:13;23.20;99.90
3752;DHT22;50827;47.014;7.652;2023-07-22T11:14:50;23.20;99.90
3752;DHT22;50827;47.014;7.652;2023-07-22T11:17:18;23.30;99.90
3752;DHT22;50827;47.014;7.652;2023-07-22T11:19:53;23.30;99.90
3752;DHT22;50827;47.014;7.652;2023-07-22T11:22:21;23.40;99.90
3752;DHT22;50827;47.014;7.652;2023-07-22T11:24:47;23.40;99.90
3752;DHT22;50827;47.014;7.652;2023-07-22T11:27:15;23.40;99.90
3752;DHT22;50827;47.014;7.652;2023-07-22T11:29:42;23.40;99.90
3752;DHT22;50827;47.014;7.652;2023-07-22T11:32:16;23.50;99.90
3752;DHT22;50827;47.014;7.652;2023-07-22T11:34:43;23.50;99.90
3752;DHT22;50827;47.014;7.652;2023-07-22T11:37:11;23.60;99.90
3752;DHT22;50827;47.014;7.652;2023-07-22T11:39:38;23.60;99.90
3752;DHT22;50827;47.014;7.652;2023-07-22T11:42:05;23.70;99.90
3752;DHT22;50827;47.014;7.652;2023-07-22T11:44:32;23.80;99.90
3752;DHT22;50827;47.014;7.652;2023-07-22T11:47:02;23.60;99.90
3752;DHT22;50827;47.014;7.652;2023-07-22T11:49:36;23.60;99.90
3752;DHT22;50827;47.014;7.652;2023-07-22T11:52:04;23.80;99.90
3752;DHT22;50827;47.014;7.652;2023-07-22T11:54:35;23.80;99.90
3752;DHT22;50827;47.014;7.652;2023-07-22T11:57:23;23.80;99.90
3752;DHT22;50827;47.014;7.652;2023-07-22T11:59:52;24.00;99.90
3752;DHT22;50827;47.014;7.652;2023-07-22T12:02:27;24.00;99.90
3752;DHT22;50827;47.014;7.652;2023-07-22T12:05:02;24.10;99.90
3752;DHT22;50827;47.014;7.652;2023-07-22T12:07:35;24.00;99.90
3752;DHT22;50827;47.014;7.652;2023-07-22T12:10:04;24.10;99.90
3752;DHT22;50827;47.014;7.652;2023-07-22T12:12:36;24.20;99.90
3752;DHT22;50827;47.014;7.652;2023-07-22T12:15:10;24.30;99.90
3752;DHT22;50827;47.014;7.652;2023-07-22T12:20:14;24.40;99.90
3752;DHT22;50827;47.014;7.652;2023-07-22T12:22:41;24.30;99.90
3752;DHT22;50827;47.014;7.652;2023-07-22T12:25:09;24.30;99.90
3752;DHT22;50827;47.014;7.652;2023-07-22T12:27:37;24.40;99.90
3752;DHT22;50827;47.014;7.652;2023-07-22T12:30:05;24.40;99.90
3752;DHT22;50827;47.014;7.652;2023-07-22T12:32:33;24.50;99.90
3752;DHT22;50827;47.014;7.652;2023-07-22T12:35:01;24.40;99.90
3752;DHT22;50827;47.014;7.652;2023-07-22T12:37:29;24.50;99.90
3752;DHT22;50827;47.014;7.652;2023-07-22T12:39:56;24.50;99.90
3752;DHT22;50827;47.014;7.652;2023-07-22T12:42:23;24.60;99.90
3752;DHT22;50827;47.014;7.652;2023-07-22T12:44:51;24.60;99.90
3752;DHT22;50827;47.014;7.652;2023-07-22T12:47:18;24.60;99.90
3752;DHT22;50827;47.014;7.652;2023-07-22T12:49:45;24.70;99.90
3752;DHT22;50827;47.014;7.652;2023-07-22T12:52:12;24.80;99.90
3752;DHT22;50827;47.014;7.652;2023-07-22T12:54:39;24.80;99.90
3752;DHT22;50827;47.014;7.652;2023-07-22T12:57:06;24.90;99.90
3752;DHT22;50827;47.014;7.652;2023-07-22T12:59:33;24.90;99.90
3752;DHT22;50827;47.014;7.652;2023-07-22T13:02:00;24.90;99.90
3752;DHT22;50827;47.014;7.652;2023-07-22T13:04:26;24.90;99.90
3752;DHT22;50827;47.014;7.652;2023-07-22T13:06:53;24.90;99.90
3752;DHT22;50827;47.014;7.652;2023-07-22T13:09:20;24.90;99.90
3752;DHT22;50827;47.014;7.652;2023-07-22T13:11:47;25.00;99.90
3752;DHT22;50827;47.014;7.652;2023-07-22T13:14:15;25.00;99.90
3752;DHT22;50827;47.014;7.652;2023-07-22T13:16:41;25.00;99.90
3752;DHT22;50827;47.014;7.652;2023-07-22T13:19:08;25.00;99.90
3752;DHT22;50827;47.014;7.652;2023-07-22T13:21:35;25.10;99.90
3752;DHT22;50827;47.014;7.652;2023-07-22T13:24:02;25.10;99.90
3752;DHT22;50827;47.014;7.652;2023-07-22T13:26:29;25.20;99.90
3752;DHT22;50827;47.014;7.652;2023-07-22T13:28:55;25.20;99.90
3752;DHT22;50827;47.014;7.652;2023-07-22T13:31:22;25.30;99.90
3752;DHT22;50827;47.014;7.652;2023-07-22T13:33:49;25.30;99.90
3752;DHT22;50827;47.014;7.652;2023-07-22T13:36:16;25.30;99.90
3752;DHT22;50827;47.014;7.652;2023-07-22T13:38:42;25.30;99.90
3752;DHT22;50827;47.014;7.652;2023-07-22T13:41:09;25.30;99.90
3752;DHT22;50827;47.014;7.652;2023-07-22T13:43:36;25.40;99.90
3752;DHT22;50827;47.014;7.652;2023-07-22T13:46:02;25.50;99.90
3752;DHT22;50827;47.014;7.652;2023-07-22T13:48:29;25.40;99.90
3752;DHT22;50827;47.014;7.652;2023-07-22T13:50:56;25.40;99.90
3752;DHT22;50827;47.014;7.652;2023-07-22T13:53:23;25.40;99.90
3752;DHT22;50827;47.014;7.652;2023-07-22T13:55:50;25.50;99.90
3752;DHT22;50827;47.014;7.652;2023-07-22T13:58:18;25.60;99.90
3752;DHT22;50827;47.014;7.652;2023-07-22T14:00:45;25.60;99.90
3752;DHT22;50827;47.014;7.652;2023-07-22T14:03:12;25.60;99.90
3752;DHT22;50827;47.014;7.652;2023-07-22T14:05:39;25.70;99.90
3752;DHT22;50827;47.014;7.652;2023-07-22T14:08:06;25.70;99.90
3752;DHT22;50827;47.014;7.652;2023-07-22T14:10:32;25.70;99.90
3752;DHT22;50827;47.014;7.652;2023-07-22T14:12:59;25.70;99.90
3752;DHT22;50827;47.014;7.652;2023-07-22T14:15:26;25.80;99.90
3752;DHT22;50827;47.014;7.652;2023-07-22T14:17:52;25.80;99.90
3752;DHT22;50827;47.014;7.652;2023-07-22T14:20:20;25.80;99.90
3752;DHT22;50827;47.014;7.652;2023-07-22T14:22:46;25.90;99.90
3752;DHT22;50827;47.014;7.652;2023-07-22T14:25:16;25.90;99.90
3752;DHT22;50827;47.014;7.652;2023-07-22T14:27:43;26.00;99.90
3752;DHT22;50827;47.014;7.652;2023-07-22T14:30:09;26.10;99.90
3752;DHT22;50827;47.014;7.652;2023-07-22T14:32:36;26.10;99.90
3752;DHT22;50827;47.014;7.652;2023-07-22T14:35:03;26.00;99.90
3752;DHT22;50827;47.014;7.652;2023-07-22T14:37:31;26.10;99.90
3752;DHT22;50827;47.014;7.652;2023-07-22T14:39:58;26.20;99.90
3752;DHT22;50827;47.014;7.652;2023-07-22T14:42:24;26.20;99.90
3752;DHT22;50827;47.014;7.652;2023-07-22T14:44:51;26.20;99.90
3752;DHT22;50827;47.014;7.652;2023-07-22T14:47:18;26.20;99.90
3752;DHT22;50827;47.014;7.652;2023-07-22T14:49:45;26.20;99.90
3752;DHT22;50827;47.014;7.652;2023-07-22T14:52:11;26.30;99.90
3752;DHT22;50827;47.014;7.652;2023-07-22T14:54:38;26.30;99.90
3752;DHT22;50827;47.014;7.652;2023-07-22T14:57:05;26.20;99.90
3752;DHT22;50827;47.014;7.652;2023-07-22T14:59:32;26.30;99.90
3752;DHT22;50827;47.014;7.652;2023-07-22T15:01:58;26.30;99.90
3752;DHT22;50827;47.014;7.652;2023-07-22T15:04:25;26.30;99.90
3752;DHT22;50827;47.014;7.652;2023-07-22T15:06:52;26.30;99.90
3752;DHT22;50827;47.014;7.652;2023-07-22T15:09:18;26.40;99.90
3752;DHT22;50827;47.014;7.652;2023-07-22T15:11:45;26.50;99.90
3752;DHT22;50827;47.014;7.652;2023-07-22T15:14:12;26.40;99.90
3752;DHT22;50827;47.014;7.652;2023-07-22T15:16:38;26.40;99.90
3752;DHT22;50827;47.014;7.652;2023-07-22T15:19:07;26.40;99.90
3752;DHT22;50827;47.014;7.652;2023-07-22T15:21:34;26.40;99.90
3752;DHT22;50827;47.014;7.652;2023-07-22T15:24:01;26.40;99.90
3752;DHT22;50827;47.014;7.652;2023-07-22T15:26:27;26.40;99.90
3752;DHT22;50827;47.014;7.652;2023-07-22T15:28:54;26.30;99.90
3752;DHT22;50827;47.014;7.652;2023-07-22T15:31:21;26.40;99.90
3752;DHT22;50827;47.014;7.652;2023-07-22T15:33:48;26.40;99.90
3752;DHT22;50827;47.014;7.652;2023-07-22T15:36:15;26.50;99.90
3752;DHT22;50827;47.014;7.652;2023-07-22T15:38:42;26.50;99.90
3752;DHT22;50827;47.014;7.652;2023-07-22T15:41:09;26.50;99.90
3752;DHT22;50827;47.014;7.652;2023-07-22T15:43:36;26.50;99.90
3752;DHT22;50827;47.014;7.652;2023-07-22T15:46:03;26.60;99.90
3752;DHT22;50827;47.014;7.652;2023-07-22T15:48:29;26.50;99.90
3752;DHT22;50827;47.014;7.652;2023-07-22T15:50:56;26.40;99.90